sensor_id;sensor_type;location;lat;lon;timestamp;P1;durP1;ratioP1;P2;durP2;ratioP2
10045;SDS011;5063;50.878;4.742;2023-03-23T00:00:52;3.80;;;2.73;;
10045;SDS011;5063;50.878;4.742;2023-03-23T00:03:22;3.77;;;3.37;;
10045;SDS011;5063;50.878;4.742;2023-03-23T00:05:54;4.13;;;2.80;;
10045;SDS011;5063;50.878;4.742;2023-03-23T00:08:25;3.57;;;3.27;;
10045;SDS011;5063;50.878;4.742;2023-03-23T00:10:51;5.80;;;3.23;;
10045;SDS011;5063;50.878;4.742;2023-03-23T00:13:24;4.93;;;3.13;;
10045;SDS011;5063;50.878;4.742;2023-03-23T00:15:51;3.83;;;2.90;;
10045;SDS011;5063;50.878;4.742;2023-03-23T00:18:17;4.60;;;3.13;;
10045;SDS011;5063;50.878;4.742;2023-03-23T00:23:22;3.90;;;3.30;;
10045;SDS011;5063;50.878;4.742;2023-03-23T00:25:54;5.43;;;3.13;;
10045;SDS011;5063;50.878;4.742;2023-03-23T00:28:24;3.10;;;2.80;;
10045;SDS011;5063;50.878;4.742;2023-03-23T00:30:59;4.40;;;3.10;;
10045;SDS011;5063;50.878;4.742;2023-03-23T00:33:35;5.53;;;3.00;;
10045;SDS011;5063;50.878;4.742;2023-03-23T00:39:04;4.93;;;3.17;;
10045;SDS011;5063;50.878;4.742;2023-03-23T00:41:32;5.07;;;3.13;;
10045;SDS011;5063;50.878;4.742;2023-03-23T00:44:01;3.60;;;3.30;;
10045;SDS011;5063;50.878;4.742;2023-03-23T00:46:28;3.50;;;3.03;;
10045;SDS011;5063;50.878;4.742;2023-03-23T00:48:57;5.93;;;3.37;;
10045;SDS011;5063;50.878;4.742;2023-03-23T00:51:23;5.43;;;3.07;;
10045;SDS011;5063;50.878;4.742;2023-03-23T00:53:49;3.50;;;2.93;;
10045;SDS011;5063;50.878;4.742;2023-03-23T00:56:15;4.93;;;2.90;;
10045;SDS011;5063;50.878;4.742;2023-03-23T00:58:41;4.23;;;3.17;;
10045;SDS011;5063;50.878;4.742;2023-03-23T01:01:11;4.07;;;3.00;;
10045;SDS011;5063;50.878;4.742;2023-03-23T01:03:36;3.73;;;2.80;;
10045;SDS011;5063;50.878;4.742;2023-03-23T01:06:09;8.60;;;3.13;;
10045;SDS011;5063;50.878;4.742;2023-03-23T01:08:39;3.30;;;2.97;;
10045;SDS011;5063;50.878;4.742;2023-03-23T01:11:15;4.17;;;3.27;;
10045;SDS011;5063;50.878;4.742;2023-03-23T01:13:42;4.90;;;2.70;;
10045;SDS011;5063;50.878;4.742;2023-03-23T01:16:08;2.90;;;2.60;;
10045;SDS011;5063;50.878;4.742;2023-03-23T01:18:35;4.10;;;2.80;;
10045;SDS011;5063;50.878;4.742;2023-03-23T01:21:10;4.80;;;2.87;;
10045;SDS011;5063;50.878;4.742;2023-03-23T01:23:39;5.73;;;2.70;;
10045;SDS011;5063;50.878;4.742;2023-03-23T01:26:08;3.17;;;2.80;;
10045;SDS011;5063;50.878;4.742;2023-03-23T01:28:36;4.93;;;3.13;;
10045;SDS011;5063;50.878;4.742;2023-03-23T01:31:03;3.60;;;2.77;;
10045;SDS011;5063;50.878;4.742;2023-03-23T01:33:30;3.07;;;2.80;;
10045;SDS011;5063;50.878;4.742;2023-03-23T01:36:02;4.13;;;2.73;;
10045;SDS011;5063;50.878;4.742;2023-03-23T01:38:32;4.30;;;2.57;;
10045;SDS011;5063;50.878;4.742;2023-03-23T01:40:59;3.00;;;2.70;;
10045;SDS011;5063;50.878;4.742;2023-03-23T01:43:25;3.57;;;3.00;;
10045;SDS011;5063;50.878;4.742;2023-03-23T01:45:51;4.43;;;3.10;;
10045;SDS011;5063;50.878;4.742;2023-03-23T01:50:55;3.80;;;3.13;;
10045;SDS011;5063;50.878;4.742;2023-03-23T01:56:26;3.00;;;2.73;;
10045;SDS011;5063;50.878;4.742;2023-03-23T01:58:58;4.10;;;2.73;;
10045;SDS011;5063;50.878;4.742;2023-03-23T02:01:24;4.90;;;3.20;;
10045;SDS011;5063;50.878;4.742;2023-03-23T02:03:52;4.13;;;2.67;;
10045;SDS011;5063;50.878;4.742;2023-03-23T02:06:20;4.77;;;2.73;;
10045;SDS011;5063;50.878;4.742;2023-03-23T02:08:47;3.30;;;3.00;;
10045;SDS011;5063;50.878;4.742;2023-03-23T02:11:15;4.17;;;2.63;;
10045;SDS011;5063;50.878;4.742;2023-03-23T02:13:49;3.67;;;2.73;;
10045;SDS011;5063;50.878;4.742;2023-03-23T02:19:07;5.03;;;3.20;;
10045;SDS011;5063;50.878;4.742;2023-03-23T02:24:51;3.70;;;2.87;;
10045;SDS011;5063;50.878;4.742;2023-03-23T02:27:43;3.27;;;2.97;;
10045;SDS011;5063;50.878;4.742;2023-03-23T02:35:52;3.27;;;2.90;;
10045;SDS011;5063;50.878;4.742;2023-03-23T02:38:26;2.80;;;2.60;;
10045;SDS011;5063;50.878;4.742;2023-03-23T02:41:17;4.97;;;2.40;;
10045;SDS011;5063;50.878;4.742;2023-03-23T02:43:46;2.97;;;2.60;;
10045;SDS011;5063;50.878;4.742;2023-03-23T02:46:14;3.67;;;2.77;;
10045;SDS011;5063;50.878;4.742;2023-03-23T02:48:40;5.80;;;2.33;;
10045;SDS011;5063;50.878;4.742;2023-03-23T02:51:07;2.33;;;1.90;;
10045;SDS011;5063;50.878;4.742;2023-03-23T02:53:36;2.73;;;2.23;;
10045;SDS011;5063;50.878;4.742;2023-03-23T02:56:04;3.07;;;2.40;;
10045;SDS011;5063;50.878;4.742;2023-03-23T02:58:32;3.10;;;2.23;;
10045;SDS011;5063;50.878;4.742;2023-03-23T03:00:59;5.00;;;2.30;;
10045;SDS011;5063;50.878;4.742;2023-03-23T03:03:28;4.40;;;2.30;;
10045;SDS011;5063;50.878;4.742;2023-03-23T03:09:02;2.67;;;2.23;;
10045;SDS011;5063;50.878;4.742;2023-03-23T03:11:40;2.80;;;2.50;;
10045;SDS011;5063;50.878;4.742;2023-03-23T03:17:16;2.20;;;2.00;;
10045;SDS011;5063;50.878;4.742;2023-03-23T03:19:49;3.23;;;2.00;;
10045;SDS011;5063;50.878;4.742;2023-03-23T03:22:19;4.73;;;2.47;;
10045;SDS011;5063;50.878;4.742;2023-03-23T03:24:46;1.93;;;1.83;;
10045;SDS011;5063;50.878;4.742;2023-03-23T03:27:15;3.50;;;2.53;;
10045;SDS011;5063;50.878;4.742;2023-03-23T03:29:44;2.33;;;1.90;;
10045;SDS011;5063;50.878;4.742;2023-03-23T03:32:17;3.73;;;2.13;;
10045;SDS011;5063;50.878;4.742;2023-03-23T03:34:49;5.57;;;2.63;;
10045;SDS011;5063;50.878;4.742;2023-03-23T03:37:15;3.63;;;2.17;;
10045;SDS011;5063;50.878;4.742;2023-03-23T03:39:43;4.50;;;2.40;;
10045;SDS011;5063;50.878;4.742;2023-03-23T03:42:09;2.53;;;1.90;;
10045;SDS011;5063;50.878;4.742;2023-03-23T03:44:35;3.70;;;2.07;;
10045;SDS011;5063;50.878;4.742;2023-03-23T03:47:02;4.43;;;2.37;;
10045;SDS011;5063;50.878;4.742;2023-03-23T03:49:29;4.43;;;2.57;;
10045;SDS011;5063;50.878;4.742;2023-03-23T03:51:55;5.13;;;2.10;;
10045;SDS011;5063;50.878;4.742;2023-03-23T03:54:20;3.53;;;2.53;;
10045;SDS011;5063;50.878;4.742;2023-03-23T03:56:47;2.80;;;2.50;;
10045;SDS011;5063;50.878;4.742;2023-03-23T03:59:13;2.57;;;2.13;;
10045;SDS011;5063;50.878;4.742;2023-03-23T04:01:39;4.17;;;2.37;;
10045;SDS011;5063;50.878;4.742;2023-03-23T04:04:08;3.17;;;1.97;;
10045;SDS011;5063;50.878;4.742;2023-03-23T04:06:34;3.50;;;2.70;;
10045;SDS011;5063;50.878;4.742;2023-03-23T04:09:01;2.40;;;2.03;;
10045;SDS011;5063;50.878;4.742;2023-03-23T04:11:31;3.13;;;2.10;;
10045;SDS011;5063;50.878;4.742;2023-03-23T04:13:57;2.47;;;2.00;;
10045;SDS011;5063;50.878;4.742;2023-03-23T04:16:23;5.30;;;2.30;;
10045;SDS011;5063;50.878;4.742;2023-03-23T04:18:51;3.70;;;2.30;;
10045;SDS011;5063;50.878;4.742;2023-03-23T04:21:17;2.93;;;2.43;;
10045;SDS011;5063;50.878;4.742;2023-03-23T04:23:42;2.70;;;2.40;;
10045;SDS011;5063;50.878;4.742;2023-03-23T04:26:08;5.03;;;2.07;;
10045;SDS011;5063;50.878;4.742;2023-03-23T04:28:38;8.53;;;2.37;;
10045;SDS011;5063;50.878;4.742;2023-03-23T04:31:04;8.73;;;2.40;;
10045;SDS011;5063;50.878;4.742;2023-03-23T04:33:30;7.43;;;2.30;;
10045;SDS011;5063;50.878;4.742;2023-03-23T04:35:58;3.13;;;2.10;;
10045;SDS011;5063;50.878;4.742;2023-03-23T04:38:26;4.63;;;2.20;;
10045;SDS011;5063;50.878;4.742;2023-03-23T04:40:53;4.03;;;2.13;;
10045;SDS011;5063;50.878;4.742;2023-03-23T04:43:20;7.57;;;2.03;;
10045;SDS011;5063;50.878;4.742;2023-03-23T04:45:52;5.17;;;2.10;;
10045;SDS011;5063;50.878;4.742;2023-03-23T04:48:26;6.17;;;2.27;;
10045;SDS011;5063;50.878;4.742;2023-03-23T04:50:53;5.13;;;2.07;;
10045;SDS011;5063;50.878;4.742;2023-03-23T04:53:20;3.87;;;2.10;;
10045;SDS011;5063;50.878;4.742;2023-03-23T04:55:46;2.23;;;1.80;;
10045;SDS011;5063;50.878;4.742;2023-03-23T04:58:15;5.50;;;2.03;;
10045;SDS011;5063;50.878;4.742;2023-03-23T05:00:42;4.43;;;1.90;;
10045;SDS011;5063;50.878;4.742;2023-03-23T05:03:09;4.23;;;1.57;;
10045;SDS011;5063;50.878;4.742;2023-03-23T05:05:36;2.87;;;1.93;;
10045;SDS011;5063;50.878;4.742;2023-03-23T05:08:02;4.70;;;2.00;;
10045;SDS011;5063;50.878;4.742;2023-03-23T05:10:28;2.97;;;1.83;;
10045;SDS011;5063;50.878;4.742;2023-03-23T05:12:54;5.33;;;2.07;;
10045;SDS011;5063;50.878;4.742;2023-03-23T05:15:20;2.50;;;1.73;;
10045;SDS011;5063;50.878;4.742;2023-03-23T05:17:46;4.13;;;1.67;;
10045;SDS011;5063;50.878;4.742;2023-03-23T05:20:14;4.60;;;1.90;;
10045;SDS011;5063;50.878;4.742;2023-03-23T05:22:44;4.63;;;2.00;;
10045;SDS011;5063;50.878;4.742;2023-03-23T05:25:10;4.13;;;1.80;;
10045;SDS011;5063;50.878;4.742;2023-03-23T05:27:36;5.63;;;1.70;;
10045;SDS011;5063;50.878;4.742;2023-03-23T05:30:03;5.17;;;2.30;;
10045;SDS011;5063;50.878;4.742;2023-03-23T05:32:30;3.93;;;1.80;;
10045;SDS011;5063;50.878;4.742;2023-03-23T05:34:57;3.73;;;1.70;;
10045;SDS011;5063;50.878;4.742;2023-03-23T05:37:24;3.60;;;1.70;;
10045;SDS011;5063;50.878;4.742;2023-03-23T05:39:52;5.43;;;1.63;;
10045;SDS011;5063;50.878;4.742;2023-03-23T05:42:19;3.40;;;1.87;;
10045;SDS011;5063;50.878;4.742;2023-03-23T05:44:46;2.47;;;1.30;;
10045;SDS011;5063;50.878;4.742;2023-03-23T05:47:13;4.07;;;1.70;;
10045;SDS011;5063;50.878;4.742;2023-03-23T05:49:39;3.03;;;1.63;;
10045;SDS011;5063;50.878;4.742;2023-03-23T05:52:06;3.83;;;2.10;;
10045;SDS011;5063;50.878;4.742;2023-03-23T05:54:32;5.10;;;1.70;;
10045;SDS011;5063;50.878;4.742;2023-03-23T05:56:59;4.17;;;1.80;;
10045;SDS011;5063;50.878;4.742;2023-03-23T05:59:25;3.47;;;1.83;;
10045;SDS011;5063;50.878;4.742;2023-03-23T06:01:51;5.50;;;2.00;;
10045;SDS011;5063;50.878;4.742;2023-03-23T06:04:21;4.57;;;2.17;;
10045;SDS011;5063;50.878;4.742;2023-03-23T06:06:50;4.20;;;1.70;;
10045;SDS011;5063;50.878;4.742;2023-03-23T06:09:25;1.83;;;1.57;;
10045;SDS011;5063;50.878;4.742;2023-03-23T06:11:50;2.20;;;1.73;;
10045;SDS011;5063;50.878;4.742;2023-03-23T06:14:17;3.40;;;1.80;;
10045;SDS011;5063;50.878;4.742;2023-03-23T06:16:43;3.83;;;1.80;;
10045;SDS011;5063;50.878;4.742;2023-03-23T06:19:09;2.30;;;1.50;;
10045;SDS011;5063;50.878;4.742;2023-03-23T06:21:36;2.37;;;1.63;;
10045;SDS011;5063;50.878;4.742;2023-03-23T06:24:02;5.00;;;1.80;;
10045;SDS011;5063;50.878;4.742;2023-03-23T06:26:38;5.07;;;1.90;;
10045;SDS011;5063;50.878;4.742;2023-03-23T06:29:06;4.40;;;1.63;;
10045;SDS011;5063;50.878;4.742;2023-03-23T06:31:46;6.07;;;2.30;;
10045;SDS011;5063;50.878;4.742;2023-03-23T06:34:15;3.97;;;1.43;;
10045;SDS011;5063;50.878;4.742;2023-03-23T06:36:41;4.83;;;1.67;;
10045;SDS011;5063;50.878;4.742;2023-03-23T06:39:10;5.63;;;1.83;;
10045;SDS011;5063;50.878;4.742;2023-03-23T06:41:36;3.27;;;1.70;;
10045;SDS011;5063;50.878;4.742;2023-03-23T06:44:02;6.53;;;1.97;;
10045;SDS011;5063;50.878;4.742;2023-03-23T06:46:28;5.60;;;1.87;;
10045;SDS011;5063;50.878;4.742;2023-03-23T06:48:54;4.97;;;1.93;;
10045;SDS011;5063;50.878;4.742;2023-03-23T06:51:20;4.70;;;2.20;;
10045;SDS011;5063;50.878;4.742;2023-03-23T06:53:46;4.30;;;1.80;;
10045;SDS011;5063;50.878;4.742;2023-03-23T06:56:13;5.43;;;2.07;;
10045;SDS011;5063;50.878;4.742;2023-03-23T06:58:39;4.70;;;2.03;;
10045;SDS011;5063;50.878;4.742;2023-03-23T07:01:07;7.03;;;1.87;;
10045;SDS011;5063;50.878;4.742;2023-03-23T07:03:34;6.50;;;2.10;;
10045;SDS011;5063;50.878;4.742;2023-03-23T07:06:00;3.47;;;1.60;;
10045;SDS011;5063;50.878;4.742;2023-03-23T07:08:26;2.97;;;1.73;;
10045;SDS011;5063;50.878;4.742;2023-03-23T07:10:55;6.20;;;2.10;;
10045;SDS011;5063;50.878;4.742;2023-03-23T07:13:22;4.27;;;2.33;;
10045;SDS011;5063;50.878;4.742;2023-03-23T07:15:48;3.67;;;1.67;;
10045;SDS011;5063;50.878;4.742;2023-03-23T07:18:15;4.70;;;1.80;;
10045;SDS011;5063;50.878;4.742;2023-03-23T07:20:42;3.93;;;2.10;;
10045;SDS011;5063;50.878;4.742;2023-03-23T07:23:08;6.27;;;2.07;;
10045;SDS011;5063;50.878;4.742;2023-03-23T07:25:34;7.80;;;1.87;;
10045;SDS011;5063;50.878;4.742;2023-03-23T07:28:01;4.17;;;1.77;;
10045;SDS011;5063;50.878;4.742;2023-03-23T07:30:27;6.03;;;1.90;;
10045;SDS011;5063;50.878;4.742;2023-03-23T07:32:55;4.43;;;2.37;;
10045;SDS011;5063;50.878;4.742;2023-03-23T07:35:21;4.77;;;2.00;;
10045;SDS011;5063;50.878;4.742;2023-03-23T07:37:48;3.47;;;1.83;;
10045;SDS011;5063;50.878;4.742;2023-03-23T07:40:14;6.33;;;2.00;;
10045;SDS011;5063;50.878;4.742;2023-03-23T07:42:41;2.37;;;1.33;;
10045;SDS011;5063;50.878;4.742;2023-03-23T07:45:09;1.73;;;1.07;;
10045;SDS011;5063;50.878;4.742;2023-03-23T07:47:36;0.77;;;0.60;;
10045;SDS011;5063;50.878;4.742;2023-03-23T07:50:03;1.10;;;0.90;;
10045;SDS011;5063;50.878;4.742;2023-03-23T07:52:30;1.60;;;1.03;;
10045;SDS011;5063;50.878;4.742;2023-03-23T07:54:56;2.00;;;1.10;;
10045;SDS011;5063;50.878;4.742;2023-03-23T07:57:22;2.73;;;0.90;;
10045;SDS011;5063;50.878;4.742;2023-03-23T07:59:48;3.47;;;1.00;;
10045;SDS011;5063;50.878;4.742;2023-03-23T08:02:14;2.53;;;1.20;;
10045;SDS011;5063;50.878;4.742;2023-03-23T08:04:40;2.97;;;1.50;;
10045;SDS011;5063;50.878;4.742;2023-03-23T08:07:07;3.80;;;1.70;;
10045;SDS011;5063;50.878;4.742;2023-03-23T08:09:33;1.80;;;1.50;;
10045;SDS011;5063;50.878;4.742;2023-03-23T08:11:59;1.53;;;1.30;;
10045;SDS011;5063;50.878;4.742;2023-03-23T08:14:25;1.70;;;1.30;;
10045;SDS011;5063;50.878;4.742;2023-03-23T08:16:52;2.63;;;1.53;;
10045;SDS011;5063;50.878;4.742;2023-03-23T08:19:20;3.80;;;1.67;;
10045;SDS011;5063;50.878;4.742;2023-03-23T08:21:47;4.53;;;1.80;;
10045;SDS011;5063;50.878;4.742;2023-03-23T08:24:14;3.27;;;1.87;;
10045;SDS011;5063;50.878;4.742;2023-03-23T08:26:40;5.03;;;1.60;;
10045;SDS011;5063;50.878;4.742;2023-03-23T08:29:07;3.67;;;1.80;;
10045;SDS011;5063;50.878;4.742;2023-03-23T08:31:33;1.80;;;1.50;;
10045;SDS011;5063;50.878;4.742;2023-03-23T08:34:01;2.87;;;1.77;;
10045;SDS011;5063;50.878;4.742;2023-03-23T08:36:30;8.00;;;2.10;;
10045;SDS011;5063;50.878;4.742;2023-03-23T08:38:57;6.27;;;2.20;;
10045;SDS011;5063;50.878;4.742;2023-03-23T08:41:23;3.27;;;1.50;;
10045;SDS011;5063;50.878;4.742;2023-03-23T08:43:49;3.10;;;1.73;;
10045;SDS011;5063;50.878;4.742;2023-03-23T08:46:15;1.63;;;1.13;;
10045;SDS011;5063;50.878;4.742;2023-03-23T08:48:43;3.07;;;1.00;;
10045;SDS011;5063;50.878;4.742;2023-03-23T08:51:10;1.77;;;1.17;;
10045;SDS011;5063;50.878;4.742;2023-03-23T08:53:38;2.90;;;1.40;;
10045;SDS011;5063;50.878;4.742;2023-03-23T08:56:05;2.40;;;1.03;;
10045;SDS011;5063;50.878;4.742;2023-03-23T08:58:34;1.50;;;1.10;;
10045;SDS011;5063;50.878;4.742;2023-03-23T09:01:00;1.30;;;0.93;;
10045;SDS011;5063;50.878;4.742;2023-03-23T09:03:26;4.73;;;1.23;;
10045;SDS011;5063;50.878;4.742;2023-03-23T09:05:53;3.20;;;1.00;;
10045;SDS011;5063;50.878;4.742;2023-03-23T09:08:19;5.03;;;1.30;;
10045;SDS011;5063;50.878;4.742;2023-03-23T09:10:45;2.27;;;1.13;;
10045;SDS011;5063;50.878;4.742;2023-03-23T09:13:13;2.23;;;1.33;;
10045;SDS011;5063;50.878;4.742;2023-03-23T09:15:39;1.60;;;1.33;;
10045;SDS011;5063;50.878;4.742;2023-03-23T09:18:06;3.87;;;1.20;;
10045;SDS011;5063;50.878;4.742;2023-03-23T09:20:31;3.90;;;1.13;;
10045;SDS011;5063;50.878;4.742;2023-03-23T09:22:57;2.27;;;1.50;;
10045;SDS011;5063;50.878;4.742;2023-03-23T09:25:24;1.33;;;1.13;;
10045;SDS011;5063;50.878;4.742;2023-03-23T09:27:52;3.23;;;1.20;;
10045;SDS011;5063;50.878;4.742;2023-03-23T09:30:23;2.80;;;1.40;;
10045;SDS011;5063;50.878;4.742;2023-03-23T09:32:51;2.03;;;1.17;;
10045;SDS011;5063;50.878;4.742;2023-03-23T09:35:18;2.80;;;1.10;;
10045;SDS011;5063;50.878;4.742;2023-03-23T09:37:47;2.43;;;1.17;;
10045;SDS011;5063;50.878;4.742;2023-03-23T09:40:26;2.60;;;1.20;;
10045;SDS011;5063;50.878;4.742;2023-03-23T09:46:00;3.03;;;1.37;;
10045;SDS011;5063;50.878;4.742;2023-03-23T09:54:11;1.10;;;1.00;;
10045;SDS011;5063;50.878;4.742;2023-03-23T09:56:45;2.37;;;1.40;;
10045;SDS011;5063;50.878;4.742;2023-03-23T10:02:21;3.23;;;1.10;;
10045;SDS011;5063;50.878;4.742;2023-03-23T10:05:12;0.93;;;0.83;;
10045;SDS011;5063;50.878;4.742;2023-03-23T10:08:00;2.27;;;1.00;;
10045;SDS011;5063;50.878;4.742;2023-03-23T10:10:40;1.53;;;0.97;;
10045;SDS011;5063;50.878;4.742;2023-03-23T10:13:32;1.20;;;1.00;;
10045;SDS011;5063;50.878;4.742;2023-03-23T10:16:20;4.13;;;1.10;;
10045;SDS011;5063;50.878;4.742;2023-03-23T10:18:53;2.30;;;1.10;;
10045;SDS011;5063;50.878;4.742;2023-03-23T10:21:47;2.73;;;1.30;;
10045;SDS011;5063;50.878;4.742;2023-03-23T10:24:20;1.63;;;1.13;;
10045;SDS011;5063;50.878;4.742;2023-03-23T10:29:53;1.73;;;1.30;;
10045;SDS011;5063;50.878;4.742;2023-03-23T10:32:39;3.67;;;1.30;;
10045;SDS011;5063;50.878;4.742;2023-03-23T10:35:14;1.80;;;1.50;;
10045;SDS011;5063;50.878;4.742;2023-03-23T10:37:52;2.83;;;1.53;;
10045;SDS011;5063;50.878;4.742;2023-03-23T10:45:29;3.07;;;1.53;;
10045;SDS011;5063;50.878;4.742;2023-03-23T10:50:45;3.00;;;1.50;;
10045;SDS011;5063;50.878;4.742;2023-03-23T10:53:23;2.30;;;1.90;;
10045;SDS011;5063;50.878;4.742;2023-03-23T10:55:59;3.37;;;1.93;;
10045;SDS011;5063;50.878;4.742;2023-03-23T10:58:26;2.33;;;1.37;;
10045;SDS011;5063;50.878;4.742;2023-03-23T11:00:54;4.13;;;1.70;;
10045;SDS011;5063;50.878;4.742;2023-03-23T11:06:05;6.33;;;1.87;;
10045;SDS011;5063;50.878;4.742;2023-03-23T11:08:38;4.33;;;1.90;;
10045;SDS011;5063;50.878;4.742;2023-03-23T11:11:36;2.30;;;1.80;;
10045;SDS011;5063;50.878;4.742;2023-03-23T11:17:42;5.60;;;2.53;;
10045;SDS011;5063;50.878;4.742;2023-03-23T11:19:45;6.40;;;2.73;;
10045;SDS011;5063;50.878;4.742;2023-03-23T11:22:31;3.30;;;2.27;;
10045;SDS011;5063;50.878;4.742;2023-03-23T11:25:02;3.17;;;2.47;;
10045;SDS011;5063;50.878;4.742;2023-03-23T11:27:30;4.27;;;3.37;;
10045;SDS011;5063;50.878;4.742;2023-03-23T11:30:08;3.87;;;3.20;;
10045;SDS011;5063;50.878;4.742;2023-03-23T11:32:42;5.37;;;3.40;;
10045;SDS011;5063;50.878;4.742;2023-03-23T11:35:31;3.60;;;3.30;;
10045;SDS011;5063;50.878;4.742;2023-03-23T11:37:56;4.37;;;3.27;;
10045;SDS011;5063;50.878;4.742;2023-03-23T11:40:24;9.80;;;4.43;;
10045;SDS011;5063;50.878;4.742;2023-03-23T11:45:19;9.17;;;4.00;;
10045;SDS011;5063;50.878;4.742;2023-03-23T11:47:49;10.97;;;3.30;;
10045;SDS011;5063;50.878;4.742;2023-03-23T11:51:10;5.43;;;3.00;;
10045;SDS011;5063;50.878;4.742;2023-03-23T11:53:42;5.43;;;3.23;;
10045;SDS011;5063;50.878;4.742;2023-03-23T11:59:17;7.20;;;2.77;;
10045;SDS011;5063;50.878;4.742;2023-03-23T12:02:01;7.70;;;2.87;;
10045;SDS011;5063;50.878;4.742;2023-03-23T12:04:39;4.17;;;2.20;;
10045;SDS011;5063;50.878;4.742;2023-03-23T12:10:24;4.20;;;2.17;;
10045;SDS011;5063;50.878;4.742;2023-03-23T12:18:21;6.40;;;2.10;;
10045;SDS011;5063;50.878;4.742;2023-03-23T12:26:46;5.50;;;2.03;;
10045;SDS011;5063;50.878;4.742;2023-03-23T12:35:07;3.33;;;2.17;;
10045;SDS011;5063;50.878;4.742;2023-03-23T12:49:34;5.07;;;2.50;;
10045;SDS011;5063;50.878;4.742;2023-03-23T12:55:34;5.43;;;2.17;;
10045;SDS011;5063;50.878;4.742;2023-03-23T12:58:12;6.87;;;2.30;;
10045;SDS011;5063;50.878;4.742;2023-03-23T13:00:55;4.17;;;2.50;;
10045;SDS011;5063;50.878;4.742;2023-03-23T13:03:27;8.50;;;3.03;;
10045;SDS011;5063;50.878;4.742;2023-03-23T13:06:05;6.87;;;3.00;;
10045;SDS011;5063;50.878;4.742;2023-03-23T13:08:38;5.93;;;2.73;;
10045;SDS011;5063;50.878;4.742;2023-03-23T13:11:25;5.77;;;2.83;;
10045;SDS011;5063;50.878;4.742;2023-03-23T13:14:11;4.50;;;2.60;;
10045;SDS011;5063;50.878;4.742;2023-03-23T13:25:06;7.97;;;3.03;;
10045;SDS011;5063;50.878;4.742;2023-03-23T13:27:42;6.57;;;2.40;;
10045;SDS011;5063;50.878;4.742;2023-03-23T13:30:19;8.17;;;2.90;;
10045;SDS011;5063;50.878;4.742;2023-03-23T13:32:49;9.77;;;2.27;;
10045;SDS011;5063;50.878;4.742;2023-03-23T13:35:17;5.83;;;2.80;;
10045;SDS011;5063;50.878;4.742;2023-03-23T13:37:51;5.93;;;3.23;;
10045;SDS011;5063;50.878;4.742;2023-03-23T13:40:24;3.40;;;2.30;;
10045;SDS011;5063;50.878;4.742;2023-03-23T13:42:56;8.00;;;2.80;;
10045;SDS011;5063;50.878;4.742;2023-03-23T13:48:16;4.77;;;2.83;;
10045;SDS011;5063;50.878;4.742;2023-03-23T13:50:54;5.33;;;2.50;;
10045;SDS011;5063;50.878;4.742;2023-03-23T13:56:47;6.40;;;2.47;;
10045;SDS011;5063;50.878;4.742;2023-03-23T13:59:27;5.37;;;2.97;;
10045;SDS011;5063;50.878;4.742;2023-03-23T14:01:57;7.80;;;2.77;;
10045;SDS011;5063;50.878;4.742;2023-03-23T14:04:56;7.33;;;2.60;;
10045;SDS011;5063;50.878;4.742;2023-03-23T14:07:22;5.47;;;2.30;;
10045;SDS011;5063;50.878;4.742;2023-03-23T14:09:49;5.50;;;2.70;;
10045;SDS011;5063;50.878;4.742;2023-03-23T14:12:19;10.03;;;3.10;;
10045;SDS011;5063;50.878;4.742;2023-03-23T14:14:50;3.77;;;2.10;;
10045;SDS011;5063;50.878;4.742;2023-03-23T14:17:24;7.83;;;2.70;;
10045;SDS011;5063;50.878;4.742;2023-03-23T14:19:52;5.53;;;2.57;;
10045;SDS011;5063;50.878;4.742;2023-03-23T14:22:25;4.20;;;2.30;;
10045;SDS011;5063;50.878;4.742;2023-03-23T14:25:14;9.43;;;4.23;;
10045;SDS011;5063;50.878;4.742;2023-03-23T14:27:42;9.27;;;3.67;;
10045;SDS011;5063;50.878;4.742;2023-03-23T14:30:20;5.73;;;3.10;;
10045;SDS011;5063;50.878;4.742;2023-03-23T14:32:48;6.07;;;2.77;;
10045;SDS011;5063;50.878;4.742;2023-03-23T14:35:31;6.53;;;2.60;;
10045;SDS011;5063;50.878;4.742;2023-03-23T14:37:59;8.70;;;2.83;;
10045;SDS011;5063;50.878;4.742;2023-03-23T14:40:28;7.93;;;2.60;;
10045;SDS011;5063;50.878;4.742;2023-03-23T14:42:55;5.37;;;2.70;;
10045;SDS011;5063;50.878;4.742;2023-03-23T14:45:22;7.27;;;2.67;;
10045;SDS011;5063;50.878;4.742;2023-03-23T14:47:57;6.70;;;2.30;;
10045;SDS011;5063;50.878;4.742;2023-03-23T14:55:43;6.17;;;2.57;;
10045;SDS011;5063;50.878;4.742;2023-03-23T14:58:12;8.20;;;2.80;;
10045;SDS011;5063;50.878;4.742;2023-03-23T15:00:48;7.13;;;2.20;;
10045;SDS011;5063;50.878;4.742;2023-03-23T15:03:24;8.40;;;2.80;;
10045;SDS011;5063;50.878;4.742;2023-03-23T15:05:53;8.70;;;3.10;;
10045;SDS011;5063;50.878;4.742;2023-03-23T15:08:28;6.53;;;2.43;;
10045;SDS011;5063;50.878;4.742;2023-03-23T15:11:11;7.27;;;3.13;;
10045;SDS011;5063;50.878;4.742;2023-03-23T15:13:44;6.10;;;2.57;;
10045;SDS011;5063;50.878;4.742;2023-03-23T15:16:19;5.80;;;2.40;;
10045;SDS011;5063;50.878;4.742;2023-03-23T15:19:02;10.30;;;2.97;;
10045;SDS011;5063;50.878;4.742;2023-03-23T15:21:46;5.30;;;2.23;;
10045;SDS011;5063;50.878;4.742;2023-03-23T15:29:31;4.97;;;2.27;;
10045;SDS011;5063;50.878;4.742;2023-03-23T15:31:58;7.73;;;2.60;;
10045;SDS011;5063;50.878;4.742;2023-03-23T15:34:26;8.07;;;1.97;;
10045;SDS011;5063;50.878;4.742;2023-03-23T15:37:00;6.73;;;2.63;;
10045;SDS011;5063;50.878;4.742;2023-03-23T15:39:28;5.97;;;2.30;;
10045;SDS011;5063;50.878;4.742;2023-03-23T15:41:55;7.20;;;2.63;;
10045;SDS011;5063;50.878;4.742;2023-03-23T15:44:24;4.60;;;2.27;;
10045;SDS011;5063;50.878;4.742;2023-03-23T15:47:02;7.13;;;2.47;;
10045;SDS011;5063;50.878;4.742;2023-03-23T15:49:36;6.30;;;2.60;;
10045;SDS011;5063;50.878;4.742;2023-03-23T15:52:01;5.20;;;2.50;;
10045;SDS011;5063;50.878;4.742;2023-03-23T15:54:30;5.10;;;2.47;;
10045;SDS011;5063;50.878;4.742;2023-03-23T15:56:57;5.43;;;2.50;;
10045;SDS011;5063;50.878;4.742;2023-03-23T15:59:23;7.80;;;2.70;;
10045;SDS011;5063;50.878;4.742;2023-03-23T16:01:49;9.73;;;2.33;;
10045;SDS011;5063;50.878;4.742;2023-03-23T16:04:16;7.47;;;2.60;;
10045;SDS011;5063;50.878;4.742;2023-03-23T16:06:43;6.37;;;2.80;;
10045;SDS011;5063;50.878;4.742;2023-03-23T16:09:16;6.50;;;2.37;;
10045;SDS011;5063;50.878;4.742;2023-03-23T16:11:43;4.90;;;2.57;;
10045;SDS011;5063;50.878;4.742;2023-03-23T16:14:10;8.53;;;2.57;;
10045;SDS011;5063;50.878;4.742;2023-03-23T16:16:41;6.57;;;2.60;;
10045;SDS011;5063;50.878;4.742;2023-03-23T16:19:11;6.90;;;2.50;;
10045;SDS011;5063;50.878;4.742;2023-03-23T16:21:40;6.57;;;2.70;;
10045;SDS011;5063;50.878;4.742;2023-03-23T16:24:07;5.23;;;2.73;;
10045;SDS011;5063;50.878;4.742;2023-03-23T16:26:34;6.80;;;2.70;;
10045;SDS011;5063;50.878;4.742;2023-03-23T16:29:01;9.53;;;2.47;;
10045;SDS011;5063;50.878;4.742;2023-03-23T16:31:27;9.07;;;2.60;;
10045;SDS011;5063;50.878;4.742;2023-03-23T16:33:53;6.50;;;2.17;;
10045;SDS011;5063;50.878;4.742;2023-03-23T16:36:19;6.90;;;2.20;;
10045;SDS011;5063;50.878;4.742;2023-03-23T16:38:45;4.33;;;2.43;;
10045;SDS011;5063;50.878;4.742;2023-03-23T16:41:11;6.93;;;2.27;;
10045;SDS011;5063;50.878;4.742;2023-03-23T16:43:36;4.20;;;2.03;;
10045;SDS011;5063;50.878;4.742;2023-03-23T16:46:02;4.20;;;2.83;;
10045;SDS011;5063;50.878;4.742;2023-03-23T16:48:28;5.00;;;2.27;;
10045;SDS011;5063;50.878;4.742;2023-03-23T16:50:54;7.50;;;2.53;;
10045;SDS011;5063;50.878;4.742;2023-03-23T16:53:20;5.73;;;2.27;;
10045;SDS011;5063;50.878;4.742;2023-03-23T16:55:46;6.90;;;2.67;;
10045;SDS011;5063;50.878;4.742;2023-03-23T16:58:15;9.43;;;2.87;;
10045;SDS011;5063;50.878;4.742;2023-03-23T17:00:41;8.40;;;2.63;;
10045;SDS011;5063;50.878;4.742;2023-03-23T17:03:08;6.93;;;2.27;;
10045;SDS011;5063;50.878;4.742;2023-03-23T17:05:35;5.00;;;2.50;;
10045;SDS011;5063;50.878;4.742;2023-03-23T17:08:01;7.37;;;2.70;;
10045;SDS011;5063;50.878;4.742;2023-03-23T17:10:28;9.53;;;2.93;;
10045;SDS011;5063;50.878;4.742;2023-03-23T17:12:54;10.13;;;2.57;;
10045;SDS011;5063;50.878;4.742;2023-03-23T17:15:20;6.07;;;2.23;;
10045;SDS011;5063;50.878;4.742;2023-03-23T17:17:49;6.17;;;2.07;;
10045;SDS011;5063;50.878;4.742;2023-03-23T17:20:15;7.27;;;2.70;;